Time;durP1;ratioP1;P1;durP2;ratioP2;P2;SDS_P1;SDS_P2;PMS_P1;PMS_P2;Temp;Humidity;BMP_temperature;BMP_pressure;BME280_temperature;BME280_humidity;BME280_pressure;Samples;Min_cycle;Max_cycle;Signal;HPM_P1;HPM_P2
2022/07/08 00:01:19;;;;;;;3.07;1.80;;;14.00;99.90;14.10;101241.00;;;;4892884;28;108984;-64
2022/07/08 00:03:45;;;;;;;8.77;2.30;;;14.00;99.90;14.00;101229.00;;;;4893018;28;122590;-63
2022/07/08 00:06:10;;;;;;;4.10;2.43;;;14.00;99.90;14.00;101232.00;;;;4892219;28;122886;-63
2022/07/08 00:08:36;;;;;;;2.43;2.07;;;14.00;99.90;14.00;101236.00;;;;4893788;28;103199;-63
2022/07/08 00:11:02;;;;;;;2.17;1.70;;;14.00;99.90;14.00;101228.00;;;;4894540;28;92955;-63
2022/07/08 00:13:27;;;;;;;1.43;1.13;;;14.00;99.90;14.00;101227.00;;;;4892363;28;122456;-62
2022/07/08 00:15:53;;;;;;;1.63;1.10;;;14.00;99.90;14.00;101236.00;;;;4891903;28;122432;-63
2022/07/08 00:18:19;;;;;;;3.53;1.90;;;14.00;99.90;14.00;101235.00;;;;4893022;28;97632;-62
2022/07/08 00:20:44;;;;;;;1.50;1.40;;;14.00;99.90;14.10;101237.00;;;;4893423;28;108939;-62
2022/07/08 00:23:10;;;;;;;4.53;1.60;;;14.00;99.90;14.10;101240.00;;;;4893565;28;121775;-63
2022/07/08 00:25:36;;;;;;;3.37;1.80;;;14.00;99.90;14.10;101244.00;;;;4892265;28;122507;-63
2022/07/08 00:28:02;;;;;;;1.70;1.60;;;14.00;99.90;14.10;101235.00;;;;4892236;28;111207;-63
2022/07/08 00:30:27;;;;;;;2.97;2.00;;;14.00;99.90;14.10;101240.00;;;;4892495;28;101581;-63
2022/07/08 00:32:53;;;;;;;7.13;1.50;;;14.10;99.90;14.10;101237.00;;;;4892971;28;123104;-63
2022/07/08 00:35:19;;;;;;;3.33;1.97;;;14.10;99.90;14.10;101244.00;;;;4891874;28;120347;-63
2022/07/08 00:37:44;;;;;;;2.57;1.50;;;14.10;99.90;14.10;101251.00;;;;4893060;28;109781;-63
2022/07/08 00:40:11;;;;;;;3.10;1.53;;;14.10;99.90;14.20;101252.00;;;;4892757;28;109147;-63
2022/07/08 00:42:37;;;;;;;4.00;1.30;;;14.10;99.90;14.20;101250.00;;;;4893025;28;93856;-64
2022/07/08 00:45:04;;;;;;;3.63;1.87;;;14.10;99.90;14.10;101254.00;;;;4893064;28;114197;-64
2022/07/08 00:47:29;;;;;;;3.20;1.07;;;14.10;99.90;14.20;101259.00;;;;4893886;28;101121;-64
2022/07/08 00:49:55;;;;;;;2.47;1.43;;;14.10;99.90;14.20;101255.00;;;;4895499;28;109873;-64
2022/07/08 00:52:21;;;;;;;4.03;1.10;;;14.10;99.90;14.20;101260.00;;;;4895195;28;122560;-64
2022/07/08 00:54:48;;;;;;;2.27;1.27;;;14.10;99.90;14.20;101262.00;;;;4877251;28;99118;-64
2022/07/08 00:57:15;;;;;;;2.10;1.07;;;14.10;99.90;14.20;101263.00;;;;4878575;28;92955;-64
2022/07/08 00:59:42;;;;;;;1.60;1.00;;;14.10;99.90;14.20;101253.00;;;;4879321;28;93475;-64
2022/07/08 01:02:08;;;;;;;1.80;1.27;;;14.10;99.90;14.10;101255.00;;;;4895363;28;93796;-64
2022/07/08 01:04:35;;;;;;;5.97;1.53;;;14.10;99.90;14.10;101269.00;;;;4894971;28;115875;-64
2022/07/08 01:07:01;;;;;;;2.23;1.60;;;14.10;99.90;14.10;101267.00;;;;4896643;28;93202;-64
2022/07/08 01:09:27;;;;;;;1.53;1.10;;;14.10;99.90;14.10;101270.00;;;;4896307;28;92965;-64
2022/07/08 01:11:53;;;;;;;2.43;1.40;;;14.10;99.90;14.10;101274.00;;;;4895293;28;121170;-63
2022/07/08 01:14:19;;;;;;;1.00;0.90;;;14.10;99.90;14.10;101267.00;;;;4894280;28;122304;-63
2022/07/08 01:16:44;;;;;;;1.77;1.47;;;14.10;99.90;14.10;101274.00;;;;4895469;28;109950;-64
2022/07/08 01:19:11;;;;;;;5.23;2.00;;;14.10;99.90;14.10;101273.00;;;;4876848;28;94103;-63
2022/07/08 01:21:36;;;;;;;1.30;1.13;;;13.70;99.90;14.10;101262.00;;;;4894044;28;93968;-63
2022/07/08 01:24:02;;;;;;;2.57;1.30;;;14.00;99.90;14.10;101274.00;;;;4897187;28;99026;-65
2022/07/08 01:26:29;;;;;;;1.50;1.40;;;14.10;99.90;14.10;101278.00;;;;4895594;28;98536;-64
2022/07/08 01:28:55;;;;;;;1.67;1.37;;;14.00;99.90;14.10;101276.00;;;;4878157;28;92724;-64
2022/07/08 01:31:21;;;;;;;3.87;1.70;;;14.00;99.90;14.10;101278.00;;;;4877388;28;93520;-65
2022/07/08 01:33:46;;;;;;;2.60;1.43;;;14.00;99.90;14.10;101274.00;;;;4894099;28;121842;-65
2022/07/08 01:36:12;;;;;;;3.80;1.93;;;14.00;99.90;14.00;101276.00;;;;4895068;28;108776;-64
2022/07/08 01:38:38;;;;;;;3.13;1.87;;;14.00;99.90;14.00;101275.00;;;;4895024;28;108918;-63
2022/07/08 01:41:04;;;;;;;2.70;1.47;;;14.00;99.90;14.00;101284.00;;;;4893497;28;122954;-65
2022/07/08 01:43:29;;;;;;;1.37;1.27;;;14.00;99.90;14.00;101284.00;;;;4894451;28;122589;-64
2022/07/08 01:45:55;;;;;;;4.40;1.57;;;13.90;99.90;14.00;101274.00;;;;4895717;28;92847;-65
2022/07/08 01:48:21;;;;;;;1.07;0.97;;;14.00;99.90;14.00;101274.00;;;;4894550;28;98973;-64
2022/07/08 01:50:47;;;;;;;5.20;1.73;;;14.00;99.90;14.00;101281.00;;;;4894758;28;123033;-63
2022/07/08 01:53:12;;;;;;;3.07;1.33;;;13.90;99.90;14.00;101284.00;;;;4894083;28;123096;-63
2022/07/08 01:55:38;;;;;;;1.07;0.97;;;14.00;99.90;14.00;101287.00;;;;4895868;28;92661;-64
2022/07/08 01:58:04;;;;;;;7.50;1.27;;;13.90;99.90;14.00;101290.00;;;;4894858;28;97938;-63
2022/07/08 02:00:30;;;;;;;4.33;1.90;;;13.90;99.90;14.00;101287.00;;;;4891203;28;122800;-63
2022/07/08 02:02:55;;;;;;;1.77;1.43;;;13.90;99.90;14.00;101291.00;;;;4895079;28;93795;-63
2022/07/08 02:05:22;;;;;;;4.73;1.10;;;13.90;99.90;13.90;101285.00;;;;4894335;28;110165;-64
2022/07/08 02:07:47;;;;;;;1.93;1.47;;;13.90;99.90;13.90;101289.00;;;;4892811;28;110243;-63
2022/07/08 02:10:13;;;;;;;2.93;1.57;;;13.90;99.90;13.90;101285.00;;;;4893467;28;122048;-63
2022/07/08 02:12:38;;;;;;;2.47;2.07;;;13.90;99.90;13.80;101289.00;;;;4894312;28;123408;-63
2022/07/08 02:15:08;;;;;;;7.93;2.03;;;13.80;99.90;13.80;101294.00;;;;4894607;28;109823;-63
2022/07/08 02:17:40;;;;;;;1.97;1.60;;;13.80;99.90;13.80;101289.00;;;;4895065;28;93423;-64
2022/07/08 02:20:09;;;;;;;1.67;1.57;;;13.70;99.90;13.70;101289.00;;;;4895357;28;93454;-65
2022/07/08 02:22:35;;;;;;;2.97;1.50;;;13.70;99.90;13.70;101293.00;;;;4894435;28;93617;-63
2022/07/08 02:25:01;;;;;;;1.03;1.00;;;13.70;99.90;13.70;101292.00;;;;4895499;28;92043;-64
2022/07/08 02:27:27;;;;;;;6.63;1.70;;;13.70;99.90;13.70;101304.00;;;;4894213;28;107136;-62
2022/07/08 02:29:52;;;;;;;2.03;1.50;;;13.70;99.90;13.70;101294.00;;;;4894212;28;110412;-62
2022/07/08 02:32:18;;;;;;;6.93;1.90;;;13.70;99.90;13.70;101306.00;;;;4892103;28;94245;-63
2022/07/08 02:34:44;;;;;;;2.53;1.70;;;13.60;99.90;13.70;101303.00;;;;4894076;28;106606;-62
2022/07/08 02:37:10;;;;;;;3.93;1.50;;;13.60;99.90;13.70;101314.00;;;;4894080;28;108210;-62
2022/07/08 02:39:36;;;;;;;2.47;2.27;;;13.60;99.90;13.70;101305.00;;;;4893594;28;93922;-62
2022/07/08 02:42:03;;;;;;;5.23;2.03;;;13.70;99.90;13.70;101313.00;;;;4892690;28;93201;-61
2022/07/08 02:44:28;;;;;;;1.73;0.97;;;13.60;99.90;13.70;101310.00;;;;4893901;28;93194;-62
2022/07/08 02:46:54;;;;;;;2.53;1.67;;;13.70;99.90;13.70;101307.00;;;;4893805;28;108302;-62
2022/07/08 02:49:20;;;;;;;1.90;1.50;;;13.70;99.90;13.70;101313.00;;;;4893657;28;107300;-63
2022/07/08 02:51:45;;;;;;;2.30;1.40;;;13.70;99.90;13.70;101318.00;;;;4892663;28;121884;-62
2022/07/08 02:54:11;;;;;;;1.87;1.43;;;13.70;99.90;13.80;101321.00;;;;4893417;28;111570;-63
2022/07/08 02:56:37;;;;;;;2.53;1.77;;;13.70;99.90;13.80;101328.00;;;;4894648;28;93657;-62
2022/07/08 02:59:03;;;;;;;4.20;1.67;;;13.70;99.90;13.80;101319.00;;;;4893292;28;122099;-62
2022/07/08 03:01:30;;;;;;;2.33;1.60;;;13.70;99.90;13.80;101331.00;;;;4894240;28;93083;-63
2022/07/08 03:03:56;;;;;;;3.43;1.50;;;13.70;99.90;13.80;101332.00;;;;4894628;28;92735;-62
2022/07/08 03:06:21;;;;;;;9.70;2.10;;;13.70;99.90;13.80;101335.00;;;;4893689;28;109370;-62
2022/07/08 03:08:47;;;;;;;3.33;1.83;;;13.90;99.90;13.90;101338.00;;;;4893414;28;122951;-62
2022/07/08 03:11:13;;;;;;;7.80;2.80;;;13.80;99.90;13.90;101341.00;;;;4892554;28;92899;-62
2022/07/08 03:13:39;;;;;;;9.10;2.30;;;13.80;99.90;13.90;101336.00;;;;4894731;28;92058;-62
2022/07/08 03:16:06;;;;;;;7.20;1.63;;;13.80;99.90;13.90;101340.00;;;;4893740;28;108321;-63
2022/07/08 03:18:33;;;;;;;1.70;1.57;;;13.80;99.90;13.90;101342.00;;;;4893899;28;93209;-62
2022/07/08 03:20:59;;;;;;;4.07;2.83;;;13.80;99.90;13.90;101344.00;;;;4893124;28;106330;-62
2022/07/08 03:23:25;;;;;;;3.33;1.93;;;13.90;99.90;14.00;101346.00;;;;4894023;28;92780;-63
2022/07/08 03:25:50;;;;;;;4.73;1.90;;;13.90;99.90;14.00;101350.00;;;;4893265;28;108292;-62
2022/07/08 03:28:16;;;;;;;3.50;1.37;;;13.90;99.90;14.00;101350.00;;;;4893587;28;122465;-62
2022/07/08 03:30:42;;;;;;;1.30;1.20;;;14.00;99.90;14.00;101347.00;;;;4893085;28;115063;-62
2022/07/08 03:33:08;;;;;;;3.47;2.10;;;14.00;99.90;14.00;101347.00;;;;4894660;28;93177;-62
2022/07/08 03:35:33;;;;;;;7.23;2.27;;;14.00;99.90;14.10;101356.00;;;;4893431;28;92806;-62
2022/07/08 03:37:59;;;;;;;3.00;2.03;;;14.00;99.90;14.10;101352.00;;;;4893136;28;122598;-62
2022/07/08 03:43:09;;;;;;;4.30;2.43;;;14.10;99.90;14.20;101371.00;;;;4893556;28;92805;-61
2022/07/08 03:45:35;;;;;;;3.30;2.37;;;14.10;99.90;14.20;101367.00;;;;4892217;28;106331;-61
2022/07/08 03:48:02;;;;;;;2.90;1.53;;;14.10;99.90;14.20;101373.00;;;;4893606;28;95954;-62
2022/07/08 03:50:29;;;;;;;2.73;1.57;;;14.10;99.90;14.20;101378.00;;;;4893260;28;93224;-62
2022/07/08 03:52:54;;;;;;;2.87;1.83;;;14.20;99.90;14.30;101370.00;;;;4893232;28;94358;-62
2022/07/08 03:55:24;;;;;;;1.80;1.70;;;14.20;99.90;14.30;101370.00;;;;4893669;28;97513;-61
2022/07/08 03:57:51;;;;;;;4.07;2.00;;;14.20;99.90;14.40;101378.00;;;;4893487;28;93916;-61
2022/07/08 04:00:16;;;;;;;3.23;2.00;;;14.20;99.90;14.40;101375.00;;;;4875387;28;93466;-61
2022/07/08 04:02:42;;;;;;;3.10;2.50;;;14.30;99.90;14.40;101389.00;;;;4893633;28;91979;-61
2022/07/08 04:05:08;;;;;;;2.07;1.57;;;14.30;99.90;14.40;101385.00;;;;4892605;28;109114;-62
2022/07/08 04:07:34;;;;;;;5.90;2.47;;;14.40;99.90;14.50;101379.00;;;;4892088;28;122602;-61
2022/07/08 04:10:00;;;;;;;3.67;1.60;;;14.40;99.90;14.50;101381.00;;;;4891549;28;122494;-61
2022/07/08 04:12:26;;;;;;;3.63;1.70;;;14.50;99.90;14.60;101388.00;;;;4893320;28;92929;-61
2022/07/08 04:14:51;;;;;;;4.20;2.40;;;14.50;99.90;14.60;101398.00;;;;4892917;28;109256;-60
2022/07/08 04:17:17;;;;;;;4.83;2.57;;;14.50;99.90;14.60;101403.00;;;;4892494;28;105025;-61
2022/07/08 04:19:43;;;;;;;4.20;2.43;;;14.50;99.90;14.70;101398.00;;;;4891714;28;123250;-61
2022/07/08 04:22:08;;;;;;;2.50;2.30;;;14.60;99.90;14.70;101406.00;;;;4874623;28;109202;-61
2022/07/08 04:24:34;;;;;;;6.23;1.97;;;14.60;99.90;14.70;101409.00;;;;4897923;28;92826;-61
2022/07/08 04:27:00;;;;;;;1.63;1.27;;;14.60;99.90;14.70;101404.00;;;;4895578;28;121714;-61
2022/07/08 04:29:26;;;;;;;5.67;2.03;;;14.60;99.90;14.70;101409.00;;;;4896804;28;92961;-61
2022/07/08 04:31:51;;;;;;;3.83;3.10;;;14.70;99.90;14.80;101413.00;;;;4896289;28;98943;-61
2022/07/08 04:34:17;;;;;;;4.60;2.47;;;14.70;99.90;14.80;101423.00;;;;4895532;28;108524;-65
2022/07/08 04:36:43;;;;;;;2.60;1.73;;;14.70;99.90;14.80;101423.00;;;;4895458;28;122816;-60
2022/07/08 04:39:08;;;;;;;3.95;1.58;;;14.70;99.90;14.80;101427.00;;;;4895375;28;122853;-61
2022/07/08 04:41:34;;;;;;;3.97;2.03;;;14.70;99.90;14.80;101440.00;;;;4896951;28;93024;-61
2022/07/08 04:44:00;;;;;;;10.77;2.13;;;14.70;99.90;14.90;101435.00;;;;4897596;28;93087;-61
2022/07/08 04:46:25;;;;;;;1.58;1.48;;;14.80;99.90;14.90;101436.00;;;;4895379;28;123848;-62
2022/07/08 04:48:52;;;;;;;2.20;2.00;;;14.80;99.90;14.90;101443.00;;;;4895748;28;121820;-62
2022/07/08 04:51:18;;;;;;;5.20;1.90;;;14.80;99.90;15.00;101439.00;;;;4886457;28;105506;-61
2022/07/08 04:53:44;;;;;;;4.47;2.47;;;14.90;99.90;15.00;101441.00;;;;4897265;28;92988;-61
2022/07/08 04:56:10;;;;;;;9.82;2.47;;;14.90;99.90;15.00;101438.00;;;;4894749;28;119562;-62
2022/07/08 04:58:35;;;;;;;9.23;2.17;;;14.90;99.90;15.00;101450.00;;;;4883652;28;93874;-62
2022/07/08 05:01:02;;;;;;;3.03;1.90;;;15.00;99.90;15.10;101448.00;;;;4895610;28;110539;-62
2022/07/08 05:03:27;;;;;;;2.28;1.67;;;15.00;99.90;15.10;101450.00;;;;4878241;28;101564;-61
2022/07/08 05:05:53;;;;;;;5.72;2.92;;;15.00;99.90;15.10;101452.00;;;;4878383;28;122942;-61
2022/07/08 05:08:19;;;;;;;8.43;2.13;;;15.00;99.90;15.10;101454.00;;;;4885105;28;122901;-62
2022/07/08 05:10:44;;;;;;;2.42;1.60;;;15.00;99.90;15.10;101464.00;;;;4876600;28;111382;-61
2022/07/08 05:13:12;;;;;;;7.57;2.83;;;15.00;99.90;15.10;101472.00;;;;4890488;28;109407;-61
2022/07/08 05:15:37;;;;;;;3.23;2.20;;;15.00;99.90;15.10;101468.00;;;;4895726;28;92283;-60
2022/07/08 05:18:03;;;;;;;1.97;1.63;;;15.00;99.90;15.10;101468.00;;;;4894551;28;121034;-61
2022/07/08 05:20:30;;;;;;;2.20;1.73;;;15.00;99.90;15.20;101469.00;;;;4886803;28;92761;-61
2022/07/08 05:22:56;;;;;;;2.08;1.60;;;15.10;99.90;15.20;101477.00;;;;4890457;28;94157;-61
2022/07/08 05:25:21;;;;;;;2.53;1.67;;;15.10;99.90;15.20;101478.00;;;;4890840;28;121557;-61
2022/07/08 05:27:47;;;;;;;2.17;1.60;;;15.10;99.90;15.30;101484.00;;;;4881480;28;111938;-61
2022/07/08 05:30:13;;;;;;;4.45;2.03;;;15.20;99.90;15.40;101480.00;;;;4896296;28;92870;-60
2022/07/08 05:32:40;;;;;;;6.45;1.67;;;15.20;99.90;15.50;101476.00;;;;4889586;28;93057;-61
2022/07/08 05:35:07;;;;;;;1.73;1.35;;;15.30;99.90;15.60;101477.00;;;;4894950;28;93764;-61
2022/07/08 05:37:37;;;;;;;3.42;2.55;;;15.40;99.90;15.60;101478.00;;;;4895351;28;104162;-61
2022/07/08 05:40:13;;;;;;;3.55;2.30;;;15.50;99.90;15.70;101483.00;;;;4897415;28;92440;-61
2022/07/08 05:42:39;;;;;;;7.60;1.50;;;15.60;99.90;15.80;101495.00;;;;4894978;28;108872;-61
2022/07/08 05:45:06;;;;;;;10.82;2.15;;;15.60;99.90;15.80;101487.00;;;;4895870;28;93983;-61
2022/07/08 05:47:32;;;;;;;6.32;2.53;;;15.70;99.90;15.80;101490.00;;;;4894829;28;94084;-61
2022/07/08 05:49:58;;;;;;;3.53;2.00;;;15.70;99.90;15.90;101494.00;;;;4894890;28;109524;-61
2022/07/08 05:52:24;;;;;;;2.88;1.60;;;15.80;99.90;15.90;101502.00;;;;4896300;28;93017;-60
2022/07/08 05:54:50;;;;;;;2.35;1.60;;;15.80;99.90;16.00;101506.00;;;;4894569;28;122917;-61
2022/07/08 05:57:16;;;;;;;2.10;1.48;;;15.90;99.90;16.00;101506.00;;;;4895649;28;93118;-61
2022/07/08 05:59:43;;;;;;;5.50;2.42;;;15.90;99.90;16.10;101507.00;;;;4895136;28;96088;-61
2022/07/08 06:02:09;;;;;;;9.35;3.05;;;15.90;99.90;16.20;101513.00;;;;4895302;28;93311;-61
2022/07/08 06:04:36;;;;;;;2.80;1.70;;;16.00;99.90;16.20;101509.00;;;;4895080;28;115967;-61
2022/07/08 06:07:02;;;;;;;8.20;2.40;;;16.10;99.90;16.30;101510.00;;;;4894604;28;93009;-60
2022/07/08 06:09:28;;;;;;;3.10;1.83;;;16.00;99.90;16.30;101513.00;;;;4896063;28;92849;-60
2022/07/08 06:11:53;;;;;;;3.33;1.42;;;16.20;99.90;16.40;101514.00;;;;4894389;28;93784;-61
2022/07/08 06:14:19;;;;;;;5.22;1.83;;;16.20;99.90;16.40;101518.00;;;;4893896;28;123614;-61
2022/07/08 06:16:48;;;;;;;6.65;2.70;;;16.30;99.90;16.50;101511.00;;;;4894878;28;93541;-61
2022/07/08 06:19:14;;;;;;;6.93;3.05;;;16.30;99.90;16.50;101523.00;;;;4895523;28;93011;-61
2022/07/08 06:21:40;;;;;;;6.70;1.65;;;16.30;99.90;16.50;101524.00;;;;4895167;28;92914;-61
2022/07/08 06:24:06;;;;;;;2.40;2.03;;;16.40;99.90;16.50;101513.00;;;;4877144;28;94210;-60
2022/07/08 06:26:32;;;;;;;1.15;0.95;;;16.40;99.90;16.60;101522.00;;;;4894194;28;106643;-61
2022/07/08 06:28:58;;;;;;;3.33;1.98;;;16.40;99.90;16.60;101525.00;;;;4894304;28;109785;-61
2022/07/08 06:31:23;;;;;;;9.68;2.47;;;16.40;99.90;16.60;101528.00;;;;4894615;28;108728;-61
2022/07/08 06:33:56;;;;;;;10.00;2.72;;;16.40;99.90;16.60;101525.00;;;;4894227;28;115128;-61
2022/07/08 06:36:25;;;;;;;6.15;2.22;;;16.40;99.90;16.60;101514.00;;;;4893975;28;93786;-61
2022/07/08 06:38:51;;;;;;;2.50;1.50;;;16.50;99.90;16.60;101534.00;;;;4895061;28;93418;-61
2022/07/08 06:41:18;;;;;;;7.35;2.15;;;16.50;99.90;16.70;101525.00;;;;4893683;28;102241;-61
2022/07/08 06:43:47;;;;;;;11.70;2.55;;;16.50;99.90;16.80;101522.00;;;;4895054;28;93232;-60
2022/07/08 06:46:13;;;;;;;2.70;1.15;;;16.60;99.90;16.80;101519.00;;;;4893562;28;93444;-59
2022/07/08 06:48:39;;;;;;;4.82;1.77;;;16.70;99.90;16.90;101523.00;;;;4895236;28;92724;-60
2022/07/08 06:51:05;;;;;;;5.45;1.38;;;16.80;99.90;17.00;101523.00;;;;4893867;28;106914;-60
2022/07/08 06:56:15;;;;;;;3.25;2.13;;;16.90;99.90;17.10;101530.00;;;;4894460;28;92809;-62
2022/07/08 06:58:41;;;;;;;2.92;1.73;;;17.00;99.90;17.20;101531.00;;;;4894003;28;92734;-61
2022/07/08 07:01:07;;;;;;;1.95;1.60;;;17.00;99.90;17.30;101539.00;;;;4893948;28;110007;-61
2022/07/08 07:03:32;;;;;;;4.38;2.03;;;17.10;99.90;17.30;101544.00;;;;4892773;28;121707;-60
2022/07/08 07:05:58;;;;;;;2.83;1.38;;;17.10;99.90;17.40;101544.00;;;;4892995;28;121864;-60
2022/07/08 07:08:24;;;;;;;3.10;1.30;;;17.30;99.90;17.50;101539.00;;;;4893305;28;109484;-61
2022/07/08 07:10:49;;;;;;;2.05;1.40;;;17.30;99.90;17.50;101554.00;;;;4893189;28;109758;-62
2022/07/08 07:13:15;;;;;;;1.55;1.17;;;17.40;99.90;17.50;101550.00;;;;4893058;28;121153;-60
2022/07/08 07:15:41;;;;;;;2.90;1.05;;;17.40;99.90;17.60;101553.00;;;;4894058;28;93517;-60
2022/07/08 07:18:08;;;;;;;3.10;1.73;;;17.40;99.90;17.60;101568.00;;;;4894844;28;92125;-60
2022/07/08 07:20:35;;;;;;;2.20;1.35;;;17.40;99.90;17.70;101562.00;;;;4894195;28;92740;-60
2022/07/08 07:23:00;;;;;;;7.10;1.67;;;17.50;99.90;17.70;101566.00;;;;4882165;28;123318;-60
2022/07/08 07:25:26;;;;;;;1.85;1.50;;;17.50;99.90;17.70;101579.00;;;;4892056;28;121940;-61
2022/07/08 07:27:52;;;;;;;1.30;1.20;;;17.60;99.90;17.80;101567.00;;;;4893629;28;109754;-61
2022/07/08 07:30:20;;;;;;;2.22;1.25;;;17.60;99.90;17.90;101580.00;;;;4894842;28;93272;-59
2022/07/08 07:32:45;;;;;;;2.42;1.48;;;17.70;99.90;17.90;101584.00;;;;4893555;28;110907;-61
2022/07/08 07:35:11;;;;;;;3.17;1.55;;;17.80;99.90;17.90;101578.00;;;;4892573;28;120947;-61
2022/07/08 07:37:38;;;;;;;1.30;1.00;;;17.80;99.90;18.00;101582.00;;;;4892874;28;110985;-60
2022/07/08 07:40:05;;;;;;;3.85;2.03;;;17.80;99.90;18.00;101579.00;;;;4894809;28;92925;-60
2022/07/08 07:42:31;;;;;;;3.78;1.45;;;17.90;99.90;18.00;101587.00;;;;4876021;28;92891;-61
2022/07/08 07:44:57;;;;;;;1.90;1.48;;;17.90;99.90;18.10;101597.00;;;;4894031;28;93337;-61
2022/07/08 07:47:23;;;;;;;2.08;1.23;;;17.90;99.90;18.20;101592.00;;;;4893254;28;110707;-60
2022/07/08 07:49:50;;;;;;;1.58;1.42;;;18.00;99.90;18.30;101603.00;;;;4893686;28;93948;-60
2022/07/08 07:52:15;;;;;;;1.63;1.33;;;18.10;99.90;18.30;101604.00;;;;4893791;28;98401;-60
2022/07/08 07:54:41;;;;;;;1.52;1.40;;;18.10;99.90;18.40;101613.00;;;;4892855;28;123090;-60
2022/07/08 07:57:07;;;;;;;1.42;1.33;;;18.20;99.90;18.40;101607.00;;;;4893685;28;110047;-60
2022/07/08 07:59:32;;;;;;;1.65;1.13;;;18.30;99.90;18.50;101617.00;;;;4899685;28;108011;-60
2022/07/08 08:01:58;;;;;;;2.00;1.55;;;18.30;99.90;18.60;101605.00;;;;4898863;28;117380;-60
2022/07/08 08:04:24;;;;;;;2.60;1.73;;;18.40;99.90;18.60;101605.00;;;;4900257;28;93887;-61
2022/07/08 08:06:49;;;;;;;7.85;1.40;;;18.40;99.90;18.60;101608.00;;;;4900455;28;98476;-60
2022/07/08 08:09:15;;;;;;;3.45;1.33;;;18.50;99.90;18.60;101616.00;;;;4899165;28;108950;-60
2022/07/08 08:11:41;;;;;;;2.22;1.38;;;18.50;99.90;18.60;101616.00;;;;4899857;28;112648;-60
2022/07/08 08:14:06;;;;;;;3.88;1.27;;;18.50;99.90;18.60;101609.00;;;;4898034;28;122708;-60
2022/07/08 08:16:32;;;;;;;3.08;1.48;;;18.60;99.90;18.70;101606.00;;;;4898575;28;110743;-61
2022/07/08 08:18:58;;;;;;;3.03;1.13;;;18.50;99.90;18.70;101609.00;;;;4898912;28;107235;-60
2022/07/08 08:21:24;;;;;;;1.77;1.13;;;18.60;99.90;18.70;101614.00;;;;4900103;28;94358;-60
2022/07/08 08:23:50;;;;;;;3.10;1.35;;;18.60;99.90;18.70;101617.00;;;;4899183;28;93386;-60
2022/07/08 08:26:16;;;;;;;3.15;2.03;;;18.80;99.90;18.70;101619.00;;;;4899201;28;111153;-60
2022/07/08 08:28:42;;;;;;;2.10;1.10;;;18.60;99.90;18.50;101631.00;;;;4899789;28;93023;-61
2022/07/08 08:31:08;;;;;;;2.78;1.50;;;18.40;99.90;18.40;101625.00;;;;4899282;28;109151;-60
2022/07/08 08:33:33;;;;;;;4.82;1.40;;;18.30;99.90;18.20;101622.00;;;;4898586;28;120010;-61
2022/07/08 08:36:00;;;;;;;3.30;1.63;;;18.20;99.90;18.10;101628.00;;;;4897921;28;108218;-61
2022/07/08 08:38:26;;;;;;;2.20;1.48;;;17.90;99.90;18.10;101623.00;;;;4899370;28;93849;-61
2022/07/08 08:40:58;;;;;;;2.53;1.42;;;18.00;99.90;18.10;101635.00;;;;4896363;28;122473;-61
2022/07/08 08:43:24;;;;;;;5.28;1.45;;;17.90;99.90;18.10;101630.00;;;;4898727;28;93958;-60
2022/07/08 08:45:52;;;;;;;1.98;1.27;;;18.00;99.90;18.00;101640.00;;;;4898768;28;96425;-61
2022/07/08 08:48:23;;;;;;;3.58;1.30;;;17.90;99.90;17.90;101639.00;;;;4899146;28;92956;-61
2022/07/08 08:50:53;;;;;;;6.07;1.75;;;17.80;99.90;17.90;101656.00;;;;4899535;28;93867;-61
2022/07/08 08:53:41;;;;;;;5.30;2.00;;;17.80;99.90;17.80;101649.00;;;;4899088;28;92981;-61
2022/07/08 08:56:11;;;;;;;5.35;1.33;;;17.70;99.90;17.80;101652.00;;;;4900067;28;92304;-60
2022/07/08 08:58:46;;;;;;;5.68;1.83;;;17.70;99.90;17.70;101648.00;;;;4899949;28;92910;-61
2022/07/08 09:01:18;;;;;;;2.00;1.83;;;17.60;99.90;17.70;101645.00;;;;4898994;28;93581;-60
2022/07/08 09:03:44;;;;;;;2.50;1.63;;;17.60;99.90;17.70;101647.00;;;;4882410;28;93931;-61
2022/07/08 09:06:10;;;;;;;3.80;1.20;;;17.50;99.90;17.70;101648.00;;;;4901317;28;92888;-60
2022/07/08 09:08:36;;;;;;;3.33;2.22;;;17.50;99.90;17.60;101658.00;;;;4898577;28;92771;-62
2022/07/08 09:11:03;;;;;;;2.58;0.93;;;17.50;99.90;17.60;101647.00;;;;4897582;28;92812;-63
2022/07/08 09:13:29;;;;;;;0.98;0.90;;;17.50;99.90;17.50;101650.00;;;;4890632;28;93013;-60
2022/07/08 09:15:58;;;;;;;11.43;2.10;;;17.40;99.90;17.50;101662.00;;;;4895788;28;110007;-61
2022/07/08 09:18:30;;;;;;;2.67;1.30;;;17.40;99.90;17.40;101659.00;;;;4894952;28;93068;-61
2022/07/08 09:20:58;;;;;;;2.33;1.67;;;17.40;99.90;17.40;101650.00;;;;4886520;28;93282;-60
2022/07/08 09:23:30;;;;;;;3.83;1.73;;;17.30;99.90;17.40;101661.00;;;;4895433;28;93196;-61
2022/07/08 09:25:59;;;;;;;1.20;1.10;;;17.30;99.90;17.40;101655.00;;;;4896644;28;93019;-60
2022/07/08 09:28:34;;;;;;;9.23;0.95;;;17.20;99.90;17.40;101661.00;;;;4895721;28;93901;-61
2022/07/08 09:31:03;;;;;;;5.50;1.55;;;17.30;99.90;17.40;101672.00;;;;4895951;28;93400;-60
2022/07/08 09:33:29;;;;;;;3.50;1.27;;;17.40;99.90;17.60;101666.00;;;;4909034;28;93743;-60
2022/07/08 09:35:56;;;;;;;4.90;1.70;;;17.40;99.90;17.80;101674.00;;;;4894621;28;102961;-58
2022/07/08 09:38:23;;;;;;;0.82;0.80;;;17.50;99.90;17.90;101669.00;;;;4895310;28;93110;-60
2022/07/08 09:41:04;;;;;;;1.33;1.05;;;17.70;99.90;18.10;101673.00;;;;4895105;28;106033;-60
2022/07/08 09:43:33;;;;;;;3.00;1.20;;;17.80;99.90;18.20;101660.00;;;;4896070;28;92702;-60
2022/07/08 09:46:04;;;;;;;1.55;1.10;;;18.00;99.90;18.40;101658.00;;;;4896335;28;91912;-60
2022/07/08 09:48:30;;;;;;;0.93;0.93;;;18.10;99.90;18.50;101653.00;;;;4895403;28;92823;-61
2022/07/08 09:50:56;;;;;;;3.88;1.10;;;18.20;99.90;18.50;101664.00;;;;4895123;28;121727;-60
2022/07/08 09:53:25;;;;;;;1.05;0.77;;;18.30;99.90;18.50;101661.00;;;;4876288;28;102452;-60
2022/07/08 09:55:54;;;;;;;3.03;1.17;;;18.30;99.90;18.50;101658.00;;;;4895522;28;92776;-60
2022/07/08 09:58:25;;;;;;;8.35;1.67;;;18.30;99.90;18.50;101663.00;;;;4895307;28;92923;-59
2022/07/08 10:00:52;;;;;;;7.78;1.33;;;18.30;99.90;18.60;101661.00;;;;4895466;28;93480;-60
2022/07/08 10:03:19;;;;;;;1.50;0.75;;;18.40;99.90;18.70;101667.00;;;;4895296;28;93163;-60
2022/07/08 10:05:46;;;;;;;12.50;1.20;;;18.50;99.90;18.80;101666.00;;;;4896034;28;92841;-60
2022/07/08 10:08:14;;;;;;;2.53;1.40;;;18.50;99.90;18.80;101672.00;;;;4895528;28;92920;-60
2022/07/08 10:10:41;;;;;;;8.00;2.25;;;18.60;99.90;18.70;101672.00;;;;4895347;28;112743;-60
2022/07/08 10:13:07;;;;;;;4.80;1.05;;;18.70;99.90;18.70;101671.00;;;;4895848;28;93125;-60
2022/07/08 10:15:36;;;;;;;5.50;1.65;;;18.50;99.90;18.70;101672.00;;;;4895658;28;92862;-60
2022/07/08 10:18:37;;;;;;;3.92;1.60;;;18.60;99.90;18.70;101671.00;;;;4894848;28;93848;-61
2022/07/08 10:21:06;;;;;;;1.40;1.30;;;18.50;99.90;18.80;101666.00;;;;4886670;28;92935;-60
2022/07/08 10:23:45;;;;;;;7.63;1.27;;;18.60;99.90;18.90;101683.00;;;;4895131;28;93115;-60
2022/07/08 10:26:15;;;;;;;12.70;1.88;;;18.70;99.90;19.00;101678.00;;;;4894673;28;93031;-61
2022/07/08 10:28:44;;;;;;;2.17;1.27;;;18.80;99.90;19.20;101675.00;;;;4894283;28;101080;-60
2022/07/08 10:31:21;;;;;;;3.92;1.35;;;18.90;99.90;19.30;101684.00;;;;4894927;28;93757;-60
2022/07/08 10:33:48;;;;;;;1.77;1.67;;;19.00;99.90;19.40;101683.00;;;;4876916;28;93107;-59
2022/07/08 10:36:21;;;;;;;3.83;1.63;;;19.20;99.90;19.40;101677.00;;;;4876877;28;92273;-60
2022/07/08 10:38:49;;;;;;;1.27;1.05;;;19.20;99.90;19.40;101680.00;;;;4894329;28;92700;-60
2022/07/08 10:41:26;;;;;;;3.08;1.73;;;19.20;99.90;19.50;101670.00;;;;4894300;28;94052;-60
2022/07/08 10:43:54;;;;;;;1.23;1.00;;;19.30;99.90;19.70;101680.00;;;;4893480;28;93906;-60
2022/07/08 10:46:27;;;;;;;1.38;1.15;;;19.40;99.90;19.80;101673.00;;;;4895100;28;93008;-60